Gaschem Juemme — ELSV2 — position and weather

sailwx.info

Track history (hours):
 
Tides and Currents Weather Stations Pressure Air Temp Water Temp Dewpoint Dewpoint Depression Visibility Wind Speed Wind Dir Waves Ship Positions

Gaschem Juemme

Last reported at 2018-Feb-21 02:28 UTC. Time now 2018-Feb-22 20:43 UTC.
Position N 24°50' E 122°22'.

Length 113.2 m; beam 15.9 m; draft 7 m.

Type: Ship. MMSI: 636090169.

Date/timePositionNaut miles runAvg speedWind from/ knotsBaromVisibWave heightAir tempDewpointWater temp
2018-Feb-21 02:28N 24°50' E 122°22'4 9.0
2018-Feb-21 02:00N 24°46' E 122°22'5 9.1
2018-Feb-21 01:30N 24°42' E 122°21'5 9.4
2018-Feb-21 01:00N 24°37' E 122°20'510.2
2018-Feb-21 00:30N 24°32' E 122°20'510.9
2018-Feb-21 00:00N 24°27' E 122°19'611.5
2018-Feb-20 23:28N 24°21' E 122°18'  
2018-Feb-14 03:52N 01°13' E 103°56'512.3
2018-Feb-14 03:27N 01°11' E 103°51'512.0
2018-Feb-14 03:00N 01°09' E 103°47'611.5
2018-Feb-14 02:30N 01°05' E 103°42'10 6.8
2018-Feb-14 01:04N 01°11' E 103°35'213.2
2018-Feb-14 00:57N 01°11' E 103°36'4 8.3
2018-Feb-14 00:30N 01°13' E 103°40'1 1.0
2018-Feb-13 23:58N 01°14' E 103°39'0 0.1
2018-Feb-13 23:22N 01°14' E 103°39'0 0.1
2018-Feb-13 22:58N 01°14' E 103°39'0 0.0
2018-Feb-13 22:27N 01°14' E 103°39'0 0.1
2018-Feb-13 21:45N 01°14' E 103°39'0 0.0
2018-Feb-13 21:15N 01°14' E 103°39'0 0.0
2018-Feb-13 20:39N 01°14' E 103°39'0 0.0
2018-Feb-13 20:20N 01°14' E 103°39'0 0.0
2018-Feb-13 19:56N 01°14' E 103°39'0 0.0
2018-Feb-13 18:26N 01°14' E 103°39'0 0.0
2018-Feb-13 17:55N 01°14' E 103°39'0 0.0
2018-Feb-13 17:25N 01°14' E 103°39'0 0.0
2018-Feb-13 16:00N 01°14' E 103°39'0 0.1
2018-Feb-13 15:24N 01°14' E 103°39'0 0.0
2018-Feb-13 14:57N 01°14' E 103°39'0 0.0
2018-Feb-13 14:21N 01°14' E 103°39'0 0.0
2018-Feb-13 13:48N 01°14' E 103°39'0 0.1
2018-Feb-13 13:30N 01°14' E 103°39'3 4.7
2018-Feb-13 12:58N 01°12' E 103°37'2 4.7
2018-Feb-13 12:30N 01°12' E 103°35'3 5.7
2018-Feb-13 12:00N 01°12' E 103°32'3 5.8
2018-Feb-13 11:28N 01°10' E 103°29'5 7.4
2018-Feb-13 10:51N 01°11' E 103°25'  
Track history (hours):
 
Tides and Currents Weather Stations Pressure Air Temp Water Temp Dewpoint Dewpoint Depression Visibility Wind Speed Wind Dir Waves Ship Positions

Gaschem Juemme

Last reported at 2018-Feb-21 02:28 UTC. Time now 2018-Feb-22 20:43 UTC.
Position N 24°50' E 122°22'.

Length 113.2 m; beam 15.9 m; draft 7 m.

Type: Ship. MMSI: 636090169.

Date/timePositionNaut miles runAvg speedWind from/ knotsBaromVisibWave heightAir tempDewpointWater temp
2018-Feb-21 02:28N 24°50' E 122°22'4 9.0
2018-Feb-21 02:00N 24°46' E 122°22'5 9.1
2018-Feb-21 01:30N 24°42' E 122°21'5 9.4
2018-Feb-21 01:00N 24°37' E 122°20'510.2
2018-Feb-21 00:30N 24°32' E 122°20'510.9
2018-Feb-21 00:00N 24°27' E 122°19'611.5
2018-Feb-20 23:28N 24°21' E 122°18'  
2018-Feb-14 03:52N 01°13' E 103°56'512.3
2018-Feb-14 03:27N 01°11' E 103°51'512.0
2018-Feb-14 03:00N 01°09' E 103°47'611.5
2018-Feb-14 02:30N 01°05' E 103°42'10 6.8
2018-Feb-14 01:04N 01°11' E 103°35'213.2
2018-Feb-14 00:57N 01°11' E 103°36'4 8.3
2018-Feb-14 00:30N 01°13' E 103°40'1 1.0
2018-Feb-13 23:58N 01°14' E 103°39'0 0.1
2018-Feb-13 23:22N 01°14' E 103°39'0 0.1
2018-Feb-13 22:58N 01°14' E 103°39'0 0.0
2018-Feb-13 22:27N 01°14' E 103°39'0 0.1
2018-Feb-13 21:45N 01°14' E 103°39'0 0.0
2018-Feb-13 21:15N 01°14' E 103°39'0 0.0
2018-Feb-13 20:39N 01°14' E 103°39'0 0.0
2018-Feb-13 20:20N 01°14' E 103°39'0 0.0
2018-Feb-13 19:56N 01°14' E 103°39'0 0.0
2018-Feb-13 18:26N 01°14' E 103°39'0 0.0
2018-Feb-13 17:55N 01°14' E 103°39'0 0.0
2018-Feb-13 17:25N 01°14' E 103°39'0 0.0
2018-Feb-13 16:00N 01°14' E 103°39'0 0.1
2018-Feb-13 15:24N 01°14' E 103°39'0 0.0
2018-Feb-13 14:57N 01°14' E 103°39'0 0.0
2018-Feb-13 14:21N 01°14' E 103°39'0 0.0
2018-Feb-13 13:48N 01°14' E 103°39'0 0.1
2018-Feb-13 13:30N 01°14' E 103°39'3 4.7
2018-Feb-13 12:58N 01°12' E 103°37'2 4.7
2018-Feb-13 12:30N 01°12' E 103°35'3 5.7
2018-Feb-13 12:00N 01°12' E 103°32'3 5.8
2018-Feb-13 11:28N 01°10' E 103°29'5 7.4
2018-Feb-13 10:51N 01°11' E 103°25'  

Dump ship's entire track history